createdAt,value
2022-08-10T00:03:38.052Z,1.38
2022-08-10T00:08:39.829Z,1.42
2022-08-10T00:13:41.378Z,1.45
2022-08-10T00:18:43.877Z,1.85
2022-08-10T00:23:45.348Z,1.42
2022-08-10T00:28:46.812Z,1.63
2022-08-10T00:33:48.258Z,1.40
2022-08-10T00:38:49.735Z,1.40
2022-08-10T00:43:51.227Z,1.50
2022-08-10T00:49:00.666Z,1.60
2022-08-10T00:54:02.487Z,1.60
2022-08-10T00:59:04.013Z,1.10
2022-08-10T01:04:40.183Z,2.17
2022-08-10T01:09:56.987Z,1.60
2022-08-10T01:15:03.463Z,1.33
2022-08-10T01:20:47.596Z,1.10
2022-08-10T01:26:30.762Z,2.03
2022-08-10T01:31:40.410Z,1.27
2022-08-10T01:36:47.843Z,1.50
2022-08-10T01:41:54.218Z,1.95
2022-08-10T01:47:22.620Z,1.50
2022-08-10T01:52:26.874Z,1.27
2022-08-10T01:57:32.226Z,1.42
2022-08-10T02:02:36.461Z,1.80
2022-08-10T02:07:42.005Z,1.77
2022-08-10T02:12:45.595Z,1.60
2022-08-10T02:18:00.500Z,1.55
2022-08-10T02:23:08.731Z,2.00
2022-08-10T02:28:29.954Z,1.70
2022-08-10T02:33:37.153Z,1.58
2022-08-10T02:38:58.250Z,1.52
2022-08-10T02:45:21.103Z,1.80
2022-08-10T02:50:08.329Z,1.63
2022-08-10T02:55:46.280Z,1.25
2022-08-10T03:00:51.848Z,1.38
2022-08-10T03:06:01.366Z,1.60
2022-08-10T03:11:06.625Z,1.40
2022-08-10T03:16:09.831Z,1.27
2022-08-10T03:21:13.231Z,1.55
2022-08-10T03:26:20.325Z,1.30
2022-08-10T03:31:22.537Z,1.58
2022-08-10T03:36:42.778Z,1.80
2022-08-10T03:41:54.189Z,1.80
2022-08-10T03:47:00.761Z,1.75
2022-08-10T03:52:03.016Z,1.70
2022-08-10T03:57:04.990Z,1.63
2022-08-10T04:02:43.349Z,1.58
2022-08-10T04:07:28.979Z,1.30
2022-08-10T04:12:30.488Z,1.40
2022-08-10T04:18:04.578Z,1.80
2022-08-10T04:22:56.971Z,1.20
2022-08-10T04:28:03.369Z,1.60
2022-08-10T04:33:08.042Z,1.63
2022-08-10T04:38:11.037Z,1.48
2022-08-10T04:43:13.678Z,1.33
2022-08-10T04:48:42.717Z,1.35
2022-08-10T04:54:04.826Z,1.80
2022-08-10T04:59:00.562Z,2.00
2022-08-10T05:04:36.731Z,1.48
2022-08-10T05:09:23.819Z,1.55
2022-08-10T05:14:25.500Z,1.60
2022-08-10T05:20:03.278Z,1.10
2022-08-10T05:24:48.658Z,1.10
2022-08-10T05:30:02.129Z,1.88
2022-08-10T05:35:05.748Z,1.30
2022-08-10T05:40:08.749Z,1.50
2022-08-10T05:45:20.332Z,1.00
2022-08-10T05:50:26.078Z,1.10
2022-08-10T05:55:30.118Z,1.02
2022-08-10T06:00:40.609Z,1.27
2022-08-10T06:05:45.413Z,1.15
2022-08-10T06:12:21.727Z,0.90
2022-08-10T06:16:12.085Z,1.00
2022-08-10T06:21:14.506Z,1.30
2022-08-10T06:26:20.982Z,1.17
2022-08-10T06:31:26.194Z,1.00
2022-08-10T06:36:34.095Z,1.10
2022-08-10T06:42:15.015Z,1.00
2022-08-10T06:47:06.038Z,1.10
2022-08-10T06:52:16.337Z,1.17
2022-08-10T06:57:24.852Z,0.95
2022-08-10T07:02:31.106Z,1.13
2022-08-10T07:07:39.900Z,0.90
2022-08-10T07:12:42.383Z,1.10
2022-08-10T07:17:46.340Z,0.93
2022-08-10T07:23:01.737Z,0.80
2022-08-10T07:28:13.966Z,0.95
2022-08-10T07:33:18.352Z,0.70
2022-08-10T07:38:24.526Z,0.98
2022-08-10T07:43:32.165Z,0.90
2022-08-10T07:48:39.590Z,1.02
2022-08-10T07:53:47.021Z,1.02
2022-08-10T07:58:52.444Z,0.90
2022-08-10T08:04:05.801Z,0.90
2022-08-10T08:09:13.504Z,0.98
2022-08-10T08:14:16.173Z,1.02
2022-08-10T08:19:32.825Z,0.88
2022-08-10T08:24:39.090Z,0.88
2022-08-10T08:29:43.869Z,0.93
2022-08-10T08:34:47.356Z,0.75
2022-08-10T08:39:49.043Z,1.08
2022-08-10T08:45:06.892Z,0.90
2022-08-10T08:50:16.245Z,0.90
2022-08-10T08:56:04.768Z,0.98
2022-08-10T09:01:40.239Z,1.10
2022-08-10T09:12:43.960Z,1.00
2022-08-10T09:18:03.507Z,0.68
2022-08-10T09:23:19.127Z,0.70
2022-08-10T09:28:27.540Z,1.40
2022-08-10T09:36:23.359Z,0.75
2022-08-10T09:40:50.121Z,1.05
2022-08-10T09:45:13.429Z,0.90
2022-08-10T09:50:43.020Z,0.93
2022-08-10T09:56:26.772Z,0.80
2022-08-10T10:02:00.308Z,0.93
2022-08-10T10:07:06.813Z,0.80
2022-08-10T10:12:32.012Z,0.80
2022-08-10T10:18:02.790Z,0.70
2022-08-10T10:23:13.806Z,1.00
2022-08-10T10:29:07.017Z,0.90
2022-08-10T10:34:10.081Z,0.77
2022-08-10T10:39:23.765Z,1.05
2022-08-10T10:44:56.693Z,1.20
2022-08-10T10:50:06.381Z,1.13
2022-08-10T10:55:30.467Z,1.10
2022-08-10T11:00:44.944Z,1.42
2022-08-10T11:05:55.479Z,1.10
2022-08-10T11:12:00.195Z,0.95
2022-08-10T11:17:00.083Z,0.98
2022-08-10T11:22:43.528Z,0.95
2022-08-10T11:28:08.433Z,0.90
2022-08-10T11:33:32.404Z,0.85
2022-08-10T11:39:13.907Z,1.55
2022-08-10T11:44:37.683Z,1.02
2022-08-10T11:50:01.897Z,0.93
2022-08-10T11:55:13.418Z,0.85
2022-08-10T12:00:18.063Z,0.77
2022-08-10T12:05:55.006Z,1.20
2022-08-10T12:10:57.710Z,1.00
2022-08-10T12:16:09.642Z,0.80
2022-08-10T12:21:21.543Z,0.80
2022-08-10T12:26:50.059Z,1.00
2022-08-10T12:32:05.628Z,0.90
2022-08-10T12:37:22.855Z,0.88
2022-08-10T12:42:39.015Z,0.90
2022-08-10T12:47:57.689Z,1.02
2022-08-10T12:53:33.037Z,1.02
2022-08-10T12:58:57.772Z,1.00
2022-08-10T13:04:22.303Z,1.02
2022-08-10T13:09:26.220Z,1.00
2022-08-10T13:14:32.749Z,1.25
2022-08-10T13:19:55.362Z,0.85
2022-08-10T13:25:03.755Z,1.05
2022-08-10T13:30:10.262Z,1.02
2022-08-10T13:35:17.676Z,0.90
2022-08-10T13:40:20.960Z,0.73
2022-08-10T13:45:25.758Z,1.02
2022-08-10T13:50:33.589Z,1.00
2022-08-10T13:55:53.441Z,1.10
2022-08-10T14:06:01.656Z,0.98
2022-08-10T14:11:11.582Z,0.80
2022-08-10T14:16:15.663Z,1.00
2022-08-10T14:21:17.565Z,0.93
2022-08-10T14:26:22.601Z,0.90
2022-08-10T14:31:33.704Z,1.08
2022-08-10T14:36:54.621Z,1.00
2022-08-10T14:42:01.407Z,0.88
2022-08-10T14:47:52.275Z,1.08
2022-08-10T14:52:39.821Z,0.85
2022-08-10T14:58:19.466Z,0.70
2022-08-10T15:03:36.540Z,0.95
2022-08-10T15:08:37.020Z,0.80
2022-08-10T15:13:44.957Z,0.88
2022-08-10T15:20:01.315Z,0.82
2022-08-10T15:24:52.765Z,0.70
2022-08-10T15:29:58.253Z,0.90
2022-08-10T15:35:27.583Z,1.10
2022-08-10T15:40:42.568Z,0.98
2022-08-10T15:46:08.102Z,0.95
2022-08-10T15:51:53.742Z,0.80
2022-08-10T15:57:00.941Z,1.10
2022-08-10T16:02:16.729Z,0.83
2022-08-10T16:07:46.050Z,1.00
2022-08-10T16:12:59.239Z,1.15
2022-08-10T16:18:17.257Z,1.10
2022-08-10T16:23:40.873Z,0.90
2022-08-10T16:28:57.869Z,0.70
2022-08-10T16:34:01.765Z,0.90
2022-08-10T16:39:04.309Z,0.82
2022-08-10T16:44:09.759Z,0.88
2022-08-10T16:49:15.003Z,0.70
2022-08-10T16:54:26.326Z,1.10
2022-08-10T16:59:33.986Z,1.00
2022-08-10T17:04:36.444Z,1.17
2022-08-10T17:09:39.704Z,0.95
2022-08-10T17:14:43.352Z,1.45
2022-08-10T17:19:45.985Z,1.08
2022-08-10T17:24:56.353Z,1.05
2022-08-10T17:30:03.902Z,1.17
2022-08-10T17:35:09.945Z,1.20
2022-08-10T17:40:16.877Z,1.27
2022-08-10T17:45:48.528Z,1.42
2022-08-10T17:50:51.471Z,1.10
2022-08-10T17:55:59.032Z,1.35
2022-08-10T18:01:38.930Z,1.25
2022-08-10T18:06:25.136Z,1.23
2022-08-10T18:11:32.224Z,1.25
2022-08-10T18:16:34.742Z,1.50
2022-08-10T18:21:42.668Z,1.25
2022-08-10T18:26:47.748Z,1.92
2022-08-10T18:31:56.453Z,1.20
2022-08-10T18:36:58.726Z,1.10
2022-08-10T18:42:09.829Z,1.45
2022-08-10T18:47:16.649Z,1.60
2022-08-10T18:52:23.214Z,1.60
2022-08-10T18:57:41.209Z,2.08
2022-08-10T19:03:20.228Z,1.35
2022-08-10T19:08:32.721Z,1.45
2022-08-10T19:13:58.610Z,1.50
2022-08-10T19:19:36.489Z,2.28
2022-08-10T19:24:58.021Z,1.63
2022-08-10T19:30:14.343Z,1.20
2022-08-10T19:36:03.329Z,1.30
2022-08-10T19:41:15.000Z,1.70
2022-08-10T19:46:34.391Z,1.60
2022-08-10T19:52:10.113Z,1.20
2022-08-10T19:57:24.160Z,1.50
2022-08-10T20:02:40.264Z,1.48
2022-08-10T20:08:01.250Z,1.23
2022-08-10T20:13:25.724Z,1.02
2022-08-10T20:18:35.355Z,1.30
2022-08-10T20:23:58.383Z,1.27
2022-08-10T20:29:23.214Z,1.73
2022-08-10T20:34:47.617Z,1.27
2022-08-10T20:40:04.245Z,1.58
2022-08-10T20:45:21.867Z,1.27
2022-08-10T20:50:35.955Z,1.10
2022-08-10T20:55:57.707Z,1.42
2022-08-10T21:01:06.241Z,1.42
2022-08-10T21:06:41.700Z,1.48
2022-08-10T21:12:03.027Z,1.27
2022-08-10T21:17:34.809Z,1.30
2022-08-10T21:22:43.193Z,1.35
2022-08-10T21:28:09.094Z,1.55
2022-08-10T21:33:32.891Z,1.60
2022-08-10T21:38:52.387Z,1.27
2022-08-10T21:44:28.476Z,1.23
2022-08-10T21:50:15.716Z,1.50
2022-08-10T21:55:58.419Z,1.20
2022-08-10T22:01:39.509Z,1.50
2022-08-10T22:07:02.669Z,1.27
2022-08-10T22:12:31.808Z,1.42
2022-08-10T22:18:10.694Z,1.42
2022-08-10T22:23:40.522Z,1.13
2022-08-10T22:29:07.270Z,1.63
2022-08-10T22:35:03.946Z,0.98
2022-08-10T22:40:30.692Z,1.35
2022-08-10T22:45:52.348Z,1.20
2022-08-10T22:51:00.650Z,1.30
2022-08-10T22:56:20.782Z,1.50
2022-08-10T23:02:08.683Z,1.83
2022-08-10T23:07:16.070Z,1.30
2022-08-10T23:12:23.491Z,1.73
2022-08-10T23:18:01.090Z,1.00
2022-08-10T23:23:09.694Z,1.50
2022-08-10T23:28:14.205Z,1.10
2022-08-10T23:33:37.505Z,1.50
2022-08-10T23:38:41.416Z,1.58
2022-08-10T23:44:03.234Z,1.50
2022-08-10T23:49:07.706Z,1.30
2022-08-10T23:54:15.163Z,1.58
2022-08-10T23:59:20.159Z,1.50
